createdAt,value
2019-02-20T00:01:03.453Z,100846.44
2019-02-20T00:03:32.710Z,100842.81
2019-02-20T00:06:02.183Z,100841.67
2019-02-20T00:08:31.370Z,100842.74
2019-02-20T00:11:00.638Z,100842.74
2019-02-20T00:13:30.003Z,100845.26
2019-02-20T00:15:59.104Z,100845.84
2019-02-20T00:18:28.232Z,100847.38
2019-02-20T00:20:57.356Z,100844.23
2019-02-20T00:23:26.792Z,100853.27
2019-02-20T00:25:55.882Z,100853.44
2019-02-20T00:28:25.144Z,100851.61
2019-02-20T00:30:54.300Z,100848.45
2019-02-20T00:33:23.494Z,100849.69
2019-02-20T00:35:52.976Z,100852.72
2019-02-20T00:38:22.253Z,100856.75
2019-02-20T00:40:51.380Z,100856.75
2019-02-20T00:43:20.517Z,100847.59
2019-02-20T00:46:26.761Z,100847.59
2019-02-20T00:49:06.966Z,100855.14
2019-02-20T00:51:44.280Z,100858.08
2019-02-20T00:54:13.689Z,100859.42
2019-02-20T00:56:42.853Z,100860.43
2019-02-20T00:59:12.277Z,100858.27
2019-02-20T01:01:41.441Z,100862.23
2019-02-20T01:04:10.724Z,100860.21
2019-02-20T01:06:40.020Z,100865.37
2019-02-20T01:09:09.321Z,100872.59
2019-02-20T01:11:38.564Z,100874.27
2019-02-20T01:14:07.711Z,100870.55
2019-02-20T01:16:37.005Z,100870.20
2019-02-20T01:19:06.275Z,100872.59
2019-02-20T01:21:35.372Z,100878.73
2019-02-20T01:24:04.662Z,100868.30
2019-02-20T01:26:33.835Z,100862.90
2019-02-20T01:29:02.929Z,100869.10
2019-02-20T01:31:32.023Z,100858.54
2019-02-20T01:34:01.270Z,100866.56
2019-02-20T01:36:30.555Z,100869.43
2019-02-20T01:39:00.127Z,100875.06
2019-02-20T01:41:29.219Z,100864.39
2019-02-20T01:43:58.293Z,100860.21
2019-02-20T01:46:27.418Z,100857.72
2019-02-20T01:48:58.569Z,100851.96
2019-02-20T01:51:27.852Z,100854.50
2019-02-20T01:53:57.434Z,100851.89
2019-02-20T01:56:26.550Z,100859.94
2019-02-20T01:58:55.646Z,100859.43
2019-02-20T02:01:24.919Z,100861.73
2019-02-20T02:03:54.175Z,100860.73
2019-02-20T02:06:23.293Z,100862.92
2019-02-20T02:08:52.549Z,100854.50
2019-02-20T02:11:21.609Z,100864.00
2019-02-20T02:13:51.025Z,100860.89
2019-02-20T02:16:20.393Z,100859.35
2019-02-20T02:18:49.546Z,100856.23
2019-02-20T02:21:18.664Z,100847.98
2019-02-20T02:23:48.046Z,100848.64
2019-02-20T02:26:17.343Z,100854.39
2019-02-20T02:28:46.488Z,100859.84
2019-02-20T02:31:15.542Z,100855.84
2019-02-20T02:33:44.614Z,100859.69
2019-02-20T02:36:13.739Z,100853.20
2019-02-20T02:38:43.105Z,100853.33
2019-02-20T02:41:12.209Z,100855.84
2019-02-20T02:43:41.351Z,100852.97
2019-02-20T02:46:10.688Z,100851.38
2019-02-20T02:48:39.923Z,100848.17
2019-02-20T02:51:09.351Z,100846.52
2019-02-20T02:53:38.561Z,100844.14
2019-02-20T02:56:07.639Z,100847.53
2019-02-20T02:58:36.738Z,100848.13
2019-02-20T03:01:05.997Z,100841.75
2019-02-20T03:03:35.219Z,100847.17
2019-02-20T03:06:04.652Z,100845.61
2019-02-20T03:08:33.719Z,100847.36
2019-02-20T03:11:03.006Z,100850.12
2019-02-20T03:13:32.231Z,100848.84
2019-02-20T03:16:01.362Z,100843.44
2019-02-20T03:18:30.709Z,100840.92
2019-02-20T03:20:59.857Z,100844.73
2019-02-20T03:23:29.075Z,100844.05
2019-02-20T03:25:58.183Z,100844.62
2019-02-20T03:28:27.385Z,100842.70
2019-02-20T03:30:56.760Z,100840.90
2019-02-20T03:33:25.869Z,100844.73
2019-02-20T03:35:55.166Z,100841.70
2019-02-20T03:38:30.361Z,100845.22
2019-02-20T03:40:55.552Z,100844.95
2019-02-20T03:43:24.842Z,100847.81
2019-02-20T03:45:53.941Z,100845.68
2019-02-20T03:48:23.273Z,100852.03
2019-02-20T03:50:52.372Z,100849.23
2019-02-20T03:53:21.622Z,100844.58
2019-02-20T03:55:51.047Z,100846.98
2019-02-20T03:58:20.200Z,100848.80
2019-02-20T04:00:49.470Z,100848.64
2019-02-20T04:03:18.626Z,100857.52
2019-02-20T04:05:47.738Z,100853.92
2019-02-20T04:08:17.041Z,100855.09
2019-02-20T04:10:46.196Z,100856.32
2019-02-20T04:13:15.612Z,100862.90
2019-02-20T04:15:44.689Z,100862.19
2019-02-20T04:18:13.960Z,100866.16
2019-02-20T04:20:43.148Z,100858.81
2019-02-20T04:23:12.240Z,100857.05
2019-02-20T04:25:41.649Z,100856.17
2019-02-20T04:28:17.818Z,100859.39
2019-02-20T04:30:47.021Z,100864.84
2019-02-20T04:33:16.258Z,100858.37
2019-02-20T04:35:45.349Z,100860.02
2019-02-20T04:38:14.894Z,100867.94
2019-02-20T04:40:44.010Z,100865.44
2019-02-20T04:43:13.224Z,100863.87
2019-02-20T04:45:42.291Z,100867.23
2019-02-20T04:48:11.359Z,100864.24
2019-02-20T04:50:40.510Z,100863.05
2019-02-20T04:53:09.712Z,100862.26
2019-02-20T04:55:38.947Z,100862.23
2019-02-20T04:58:19.188Z,100854.91
2019-02-20T05:00:48.300Z,100852.88
2019-02-20T05:03:17.397Z,100858.76
2019-02-20T05:05:46.880Z,100858.30
2019-02-20T05:08:16.262Z,100851.58
2019-02-20T05:10:45.510Z,100862.58
2019-02-20T05:13:14.631Z,100863.77
2019-02-20T05:15:43.967Z,100870.72
2019-02-20T05:18:13.056Z,100869.51
2019-02-20T05:20:42.318Z,100866.88
2019-02-20T05:23:11.394Z,100871.83
2019-02-20T05:25:40.607Z,100872.39
2019-02-20T05:28:09.740Z,100872.39
2019-02-20T05:30:38.827Z,100874.56
2019-02-20T05:33:08.104Z,100882.58
2019-02-20T05:35:37.259Z,100883.58
2019-02-20T05:38:06.492Z,100877.69
2019-02-20T05:40:35.742Z,100884.64
2019-02-20T05:43:05.047Z,100879.88
2019-02-20T05:45:34.304Z,100892.05
2019-02-20T05:48:03.357Z,100889.51
2019-02-20T05:50:32.530Z,100895.88
2019-02-20T05:53:01.874Z,100893.12
2019-02-20T05:55:30.941Z,100892.27
2019-02-20T05:58:00.211Z,100895.53
2019-02-20T06:00:29.641Z,100898.76
2019-02-20T06:02:58.776Z,100898.39
2019-02-20T06:05:28.062Z,100905.22
2019-02-20T06:07:57.140Z,100905.34
2019-02-20T06:10:26.391Z,100911.58
2019-02-20T06:12:55.601Z,100910.50
2019-02-20T06:15:25.178Z,100914.69
2019-02-20T06:17:54.225Z,100917.72
2019-02-20T06:20:23.346Z,100916.37
2019-02-20T06:22:52.646Z,100922.50
2019-02-20T06:25:21.742Z,100920.44
2019-02-20T06:27:50.834Z,100921.64
2019-02-20T06:30:20.133Z,100922.73
2019-02-20T06:32:49.388Z,100926.45
2019-02-20T06:35:18.606Z,100915.28
2019-02-20T06:37:47.810Z,100931.57
2019-02-20T06:40:16.944Z,100921.49
2019-02-20T06:42:46.302Z,100927.38
2019-02-20T06:45:15.764Z,100927.03
2019-02-20T06:47:44.943Z,100928.00
2019-02-20T06:50:14.226Z,100932.08
2019-02-20T06:52:45.178Z,100936.85
2019-02-20T06:55:14.311Z,100941.77
2019-02-20T06:57:43.648Z,100936.65
2019-02-20T07:00:13.103Z,100943.36
2019-02-20T07:02:42.883Z,100948.78
2019-02-20T07:05:51.777Z,100948.31
2019-02-20T07:08:58.369Z,100949.73
2019-02-20T07:11:44.409Z,100956.34
2019-02-20T07:14:45.826Z,100953.44
2019-02-20T07:17:38.774Z,100955.17
2019-02-20T07:20:42.550Z,100956.44
2019-02-20T07:23:40.272Z,100958.52
2019-02-20T07:26:41.480Z,100964.14
2019-02-20T07:29:43.506Z,100959.43
2019-02-20T07:32:15.565Z,100960.80
2019-02-20T07:34:44.630Z,100962.80
2019-02-20T07:37:13.720Z,100955.88
2019-02-20T07:39:43.045Z,100967.09
2019-02-20T07:42:12.313Z,100962.38
2019-02-20T07:44:41.429Z,100962.92
2019-02-20T07:47:10.527Z,100965.75
2019-02-20T07:49:39.721Z,100970.31
2019-02-20T07:52:08.825Z,100970.31
2019-02-20T07:54:38.106Z,100982.58
2019-02-20T07:57:07.215Z,100980.40
2019-02-20T07:59:36.541Z,100980.40
2019-02-20T08:02:05.740Z,100986.41
2019-02-20T08:04:35.005Z,100980.81
2019-02-20T08:07:04.208Z,100981.45
2019-02-20T08:09:33.372Z,100981.45
2019-02-20T08:12:02.692Z,100986.97
2019-02-20T08:14:31.945Z,100993.61
2019-02-20T08:17:01.253Z,100993.61
2019-02-20T08:19:30.345Z,100994.08
2019-02-20T08:21:59.531Z,101000.87
2019-02-20T08:24:28.616Z,100996.45
2019-02-20T08:26:57.933Z,100996.45
2019-02-20T08:29:27.364Z,100995.44
2019-02-20T08:31:56.442Z,101002.83
2019-02-20T08:34:25.591Z,101002.83
2019-02-20T08:36:56.594Z,100993.35
2019-02-20T08:39:25.982Z,100988.42
2019-02-20T08:41:55.503Z,100984.83
2019-02-20T08:44:24.583Z,100978.33
2019-02-20T08:46:53.789Z,100978.33
2019-02-20T08:49:22.868Z,100982.28
2019-02-20T08:51:52.234Z,100976.70
2019-02-20T08:54:21.388Z,100976.70
2019-02-20T08:56:50.535Z,100985.25
2019-02-20T08:59:19.947Z,100980.72
2019-02-20T09:01:49.077Z,100994.28
2019-02-20T09:04:18.172Z,100999.39
2019-02-20T09:06:47.631Z,101001.50
2019-02-20T09:09:16.923Z,101008.49
2019-02-20T09:11:46.143Z,101004.92
2019-02-20T09:14:15.341Z,101008.17
2019-02-20T09:16:44.561Z,101014.69
2019-02-20T09:19:13.637Z,101023.41
2019-02-20T09:21:42.776Z,101032.65
2019-02-20T09:24:11.927Z,101032.01
2019-02-20T09:26:41.244Z,101035.85
2019-02-20T09:29:10.463Z,101043.30
2019-02-20T09:31:39.659Z,101044.96
2019-02-20T09:34:09.018Z,101039.41
2019-02-20T09:36:38.316Z,101045.70
2019-02-20T09:39:45.197Z,101050.84
2019-02-20T09:42:20.085Z,101054.61
2019-02-20T09:44:50.055Z,101055.88
2019-02-20T09:47:20.317Z,101054.77
2019-02-20T09:49:49.412Z,101045.00
2019-02-20T09:52:18.562Z,101053.41
2019-02-20T09:54:47.674Z,101058.59
2019-02-20T09:57:16.778Z,101058.52
2019-02-20T09:59:46.067Z,101058.59
2019-02-20T10:02:15.168Z,101054.80
2019-02-20T10:04:47.173Z,101055.87
2019-02-20T10:07:16.580Z,101062.83
2019-02-20T10:09:45.754Z,101069.56
2019-02-20T10:12:15.268Z,101065.40
2019-02-20T10:14:44.371Z,101078.72
2019-02-20T10:17:13.543Z,101077.66
2019-02-20T10:19:42.824Z,101067.47
2019-02-20T10:22:12.135Z,101075.11
2019-02-20T10:24:41.237Z,101074.31
2019-02-20T10:27:10.327Z,101079.31
2019-02-20T10:29:39.503Z,101077.63
2019-02-20T10:32:08.961Z,101077.50
2019-02-20T10:34:38.118Z,101082.58
2019-02-20T10:37:07.214Z,101073.79
2019-02-20T10:39:36.478Z,101083.95
2019-02-20T10:42:05.690Z,101078.53
2019-02-20T10:44:35.027Z,101083.30
2019-02-20T10:47:04.298Z,101077.78
2019-02-20T10:49:33.551Z,101077.80
2019-02-20T10:52:02.649Z,101074.48
2019-02-20T10:54:34.665Z,101078.64
2019-02-20T10:57:03.893Z,101078.64
2019-02-20T10:59:33.215Z,101072.20
2019-02-20T11:02:02.355Z,101076.00
2019-02-20T11:04:31.660Z,101076.52
2019-02-20T11:07:00.794Z,101074.75
2019-02-20T11:09:31.811Z,101072.81
2019-02-20T11:12:01.267Z,101071.44
2019-02-20T11:14:30.576Z,101071.55
2019-02-20T11:16:59.683Z,101071.09
2019-02-20T11:19:29.072Z,101073.79
2019-02-20T11:21:58.222Z,101072.56
2019-02-20T11:24:27.413Z,101078.64
2019-02-20T11:26:56.526Z,101081.02
2019-02-20T11:29:25.975Z,101074.86
2019-02-20T11:31:56.511Z,101073.01
2019-02-20T11:34:28.084Z,101075.11
2019-02-20T11:36:57.380Z,101076.91
2019-02-20T11:39:37.303Z,101073.31
2019-02-20T11:41:59.633Z,101078.19
2019-02-20T11:44:28.931Z,101075.58
2019-02-20T11:46:58.169Z,101069.10
2019-02-20T11:49:27.401Z,101070.84
2019-02-20T11:51:56.496Z,101072.95
2019-02-20T11:54:27.935Z,101074.29
2019-02-20T11:56:57.054Z,101070.36
2019-02-20T15:41:45.410Z,100989.33
2019-02-20T15:44:14.675Z,100985.75
2019-02-20T15:46:44.043Z,100988.68
2019-02-20T15:49:13.208Z,100987.30
2019-02-20T15:51:42.402Z,100988.48
2019-02-20T15:54:11.500Z,100987.80
2019-02-20T15:56:40.746Z,100987.98
2019-02-20T15:59:09.960Z,100988.12
2019-02-20T16:01:39.256Z,100989.27
2019-02-20T16:04:08.614Z,100989.34
2019-02-20T16:06:37.767Z,100982.05
2019-02-20T16:09:07.620Z,100993.74
2019-02-20T16:11:36.948Z,100989.97
2019-02-20T16:14:06.197Z,100990.34
2019-02-20T16:16:35.326Z,100992.78
2019-02-20T16:19:05.027Z,100992.38
2019-02-20T16:21:36.933Z,100996.59
2019-02-20T16:24:06.156Z,100998.31
2019-02-20T16:26:35.285Z,100997.47
2019-02-20T16:29:04.534Z,101003.59
2019-02-20T16:31:33.893Z,101004.49
2019-02-20T16:34:04.127Z,100999.55
2019-02-20T16:36:33.410Z,101000.24
2019-02-20T16:39:02.732Z,101004.04
2019-02-20T16:41:31.968Z,101005.44
2019-02-20T16:44:01.295Z,101002.15
2019-02-20T16:46:30.629Z,101012.23
2019-02-20T16:49:00.190Z,101012.97
2019-02-20T16:51:29.564Z,101012.36
2019-02-20T16:53:58.907Z,101010.63
2019-02-20T16:56:28.311Z,101012.03
2019-02-20T16:58:57.581Z,101003.23
2019-02-20T17:01:26.713Z,101010.17
2019-02-20T17:03:55.846Z,101013.36
2019-02-20T17:06:24.942Z,101012.42
2019-02-20T17:08:54.302Z,101015.16
2019-02-20T17:11:23.602Z,101018.25
2019-02-20T17:13:52.875Z,101022.63
2019-02-20T17:16:21.908Z,101019.67
2019-02-20T17:18:51.071Z,101026.75
2019-02-20T17:21:20.283Z,101021.74
2019-02-20T17:23:49.654Z,101026.17
2019-02-20T17:26:18.825Z,101027.09
2019-02-20T17:28:47.944Z,101032.66
2019-02-20T17:31:17.149Z,101031.75
2019-02-20T17:33:46.391Z,101033.47
2019-02-20T17:36:16.197Z,101033.37
2019-02-20T17:38:45.421Z,101034.95
2019-02-20T17:41:14.783Z,101039.85
2019-02-20T17:43:44.037Z,101040.04
2019-02-20T17:46:13.418Z,101039.41
2019-02-20T17:48:42.608Z,101039.92
2019-02-20T17:51:12.343Z,101041.77
2019-02-20T17:53:41.446Z,101038.48
2019-02-20T17:56:10.782Z,101041.83
2019-02-20T17:58:40.225Z,101052.20
2019-02-20T18:01:15.831Z,101052.03
2019-02-20T18:03:45.030Z,101058.40
2019-02-20T18:06:14.380Z,101056.58
2019-02-20T18:08:43.663Z,101058.40
2019-02-20T18:11:13.315Z,101062.91
2019-02-20T18:13:42.757Z,101060.87
2019-02-20T18:16:11.941Z,101062.03
2019-02-20T18:18:41.213Z,101059.50
2019-02-20T18:21:10.567Z,101056.34
2019-02-20T18:23:39.633Z,101064.84
2019-02-20T18:26:08.800Z,101065.13
2019-02-20T18:28:37.907Z,101070.18
2019-02-20T18:31:07.062Z,101076.82
2019-02-20T18:33:36.474Z,101074.27
2019-02-20T18:36:05.802Z,101069.41
2019-02-20T18:38:34.915Z,101074.74
2019-02-20T18:41:04.013Z,101081.42
2019-02-20T18:43:33.275Z,101087.08
2019-02-20T18:46:02.351Z,101084.04
2019-02-20T18:48:31.605Z,101092.83
2019-02-20T18:51:00.728Z,101090.47
2019-02-20T18:53:31.001Z,101092.43
2019-02-20T18:56:00.174Z,101090.22
2019-02-20T18:58:33.970Z,101089.58
2019-02-20T19:01:00.500Z,101090.38
2019-02-20T19:03:30.648Z,101094.85
2019-02-20T19:06:00.088Z,101099.77
2019-02-20T19:08:47.268Z,101099.45
2019-02-20T19:11:32.254Z,101097.89
2019-02-20T19:14:31.174Z,101096.00
2019-02-20T19:17:41.496Z,101106.31
2019-02-20T19:20:32.012Z,101107.72
2019-02-20T19:23:22.518Z,101107.02
2019-02-20T19:26:31.089Z,101108.64
2019-02-20T19:29:59.746Z,101114.06
2019-02-20T19:33:25.103Z,101120.73
2019-02-20T19:36:44.536Z,101125.45
2019-02-20T19:39:59.366Z,101128.00
2019-02-20T19:42:59.949Z,101137.66
2019-02-20T19:46:00.255Z,101132.75
2019-02-20T19:48:55.072Z,101131.30
2019-02-20T19:52:23.519Z,101134.70
2019-02-20T19:55:22.311Z,101133.78
2019-02-20T19:58:09.629Z,101136.01
2019-02-20T20:01:30.988Z,101132.13
2019-02-20T20:04:33.623Z,101139.22
2019-02-20T20:07:49.755Z,101138.64
2019-02-20T20:10:51.631Z,101141.01
2019-02-20T20:14:02.210Z,101137.61
2019-02-20T20:17:30.469Z,101138.80
2019-02-20T20:20:32.282Z,101146.71
2019-02-20T20:23:36.688Z,101147.30
2019-02-20T20:26:43.499Z,101148.33
2019-02-20T20:29:57.512Z,101144.30
2019-02-20T20:32:56.540Z,101155.41
2019-02-20T20:36:28.170Z,101155.21
2019-02-20T20:39:16.708Z,101158.16
2019-02-20T20:42:26.433Z,101161.64
2019-02-20T20:45:26.989Z,101154.72
2019-02-20T20:48:18.777Z,101161.52
2019-02-20T20:51:13.885Z,101158.52
2019-02-20T20:54:26.473Z,101164.88
2019-02-20T20:57:28.145Z,101166.91
2019-02-20T21:00:10.732Z,101158.79
2019-02-20T21:02:57.366Z,101161.02
2019-02-20T21:06:11.859Z,101163.34
2019-02-20T21:09:33.747Z,101154.52
2019-02-20T21:12:38.622Z,101163.75
2019-02-20T21:15:52.205Z,101168.47
2019-02-20T21:19:02.850Z,101165.11
2019-02-20T21:21:47.987Z,101164.30
2019-02-20T21:24:45.259Z,101167.12
2019-02-20T21:27:58.799Z,101169.78
2019-02-20T21:31:03.884Z,101171.72
2019-02-20T21:34:00.230Z,101164.97
2019-02-20T21:36:57.700Z,101163.58
2019-02-20T21:39:52.289Z,101158.34
2019-02-20T21:42:34.540Z,101163.52
2019-02-20T21:45:16.251Z,101158.34
2019-02-20T21:48:28.559Z,101160.98
2019-02-20T21:51:26.247Z,101161.78
2019-02-20T21:54:40.158Z,101167.56
2019-02-20T21:57:39.275Z,101167.56
2019-02-20T22:00:42.722Z,101165.34
2019-02-20T22:03:56.021Z,101170.66
2019-02-20T22:06:59.527Z,101170.66
2019-02-20T22:10:01.825Z,101169.05
2019-02-20T22:13:06.843Z,101169.05
2019-02-20T22:16:00.385Z,101178.89
2019-02-20T22:18:40.344Z,101164.16
2019-02-20T22:21:33.519Z,101175.05
2019-02-20T22:24:59.011Z,101171.55
2019-02-20T22:28:08.016Z,101171.27
2019-02-20T22:31:00.833Z,101156.01
2019-02-20T22:33:48.424Z,101156.01
2019-02-20T22:36:52.269Z,101165.02
2019-02-20T22:39:31.071Z,101165.02
2019-02-20T22:42:31.168Z,101169.58
2019-02-20T22:45:23.151Z,101177.33
2019-02-20T22:48:28.303Z,101170.32
2019-02-20T22:51:15.698Z,101173.77
2019-02-20T22:54:16.233Z,101178.39
2019-02-20T22:57:31.208Z,101181.77
2019-02-20T23:00:40.877Z,101182.20
2019-02-20T23:03:21.784Z,101186.89
2019-02-20T23:06:33.825Z,101186.89
2019-02-20T23:09:28.317Z,101192.33
2019-02-20T23:12:12.972Z,101189.60
2019-02-20T23:14:58.044Z,101185.43
2019-02-20T23:17:27.822Z,101198.75
2019-02-20T23:19:57.945Z,101198.75
2019-02-20T23:22:27.438Z,101190.20
2019-02-20T23:24:56.718Z,101187.88
2019-02-20T23:27:26.049Z,101187.88
2019-02-20T23:29:55.126Z,101207.02
2019-02-20T23:32:24.362Z,101194.55
2019-02-20T23:34:53.466Z,101209.66
2019-02-20T23:37:22.882Z,101199.40
2019-02-20T23:39:51.984Z,101195.12
2019-02-20T23:42:21.347Z,101195.12
2019-02-20T23:44:50.439Z,101205.09
2019-02-20T23:47:19.707Z,101205.23
2019-02-20T23:49:48.839Z,101205.23
2019-02-20T23:52:17.955Z,101202.36
2019-02-20T23:54:47.373Z,101214.47
2019-02-20T23:57:16.496Z,101217.67
2019-02-20T23:59:45.803Z,101223.75
